createdAt,value
2023-06-05T00:01:05.083Z,89.60
2023-06-05T00:03:32.713Z,89.80
2023-06-05T00:06:00.402Z,89.90
2023-06-05T00:08:28.029Z,90.00
2023-06-05T00:10:55.669Z,90.00
2023-06-05T00:13:23.306Z,90.20
2023-06-05T00:15:52.768Z,90.30
2023-06-05T00:18:20.929Z,90.40
2023-06-05T00:20:48.655Z,90.60
2023-06-05T00:23:16.208Z,90.70
2023-06-05T00:25:43.756Z,90.80
2023-06-05T00:28:11.452Z,91.20
2023-06-05T00:30:40.155Z,91.10
2023-06-05T00:33:07.743Z,91.10
2023-06-05T00:35:35.309Z,91.40
2023-06-05T00:38:02.875Z,91.60
2023-06-05T00:40:30.318Z,91.60
2023-06-05T00:42:57.797Z,91.80
2023-06-05T00:45:25.483Z,92.10
2023-06-05T00:47:53.379Z,92.60
2023-06-05T00:50:22.842Z,92.40
2023-06-05T00:52:51.480Z,92.60
2023-06-05T00:55:19.418Z,92.70
2023-06-05T00:57:47.430Z,93.10
2023-06-05T01:00:16.389Z,93.30
2023-06-05T01:02:44.220Z,93.50
2023-06-05T01:05:12.038Z,93.70
2023-06-05T01:07:39.785Z,93.80
2023-06-05T01:10:11.597Z,94.10
2023-06-05T01:12:57.243Z,94.20
2023-06-05T01:15:32.611Z,94.70
2023-06-05T01:18:01.748Z,94.80
2023-06-05T01:20:40.857Z,95.00
2023-06-05T01:23:09.614Z,95.00
2023-06-05T01:25:38.166Z,95.00
2023-06-05T01:28:22.581Z,95.10
2023-06-05T01:31:02.324Z,95.20
2023-06-05T01:33:45.587Z,95.40
2023-06-05T01:36:14.791Z,95.60
2023-06-05T01:38:44.094Z,95.70
2023-06-05T01:41:14.610Z,96.00
2023-06-05T01:43:42.945Z,96.40
2023-06-05T01:46:11.734Z,96.30
2023-06-05T01:48:44.159Z,96.30
2023-06-05T01:51:11.752Z,96.50
2023-06-05T01:53:39.701Z,96.80
2023-06-05T01:56:09.564Z,97.00
2023-06-05T01:58:38.317Z,97.50
2023-06-05T02:01:06.852Z,97.70
2023-06-05T02:03:34.944Z,98.20
2023-06-05T02:06:02.510Z,98.50
2023-06-05T02:08:30.018Z,98.90
2023-06-05T02:10:57.665Z,99.60
2023-06-05T02:13:26.290Z,99.90
2023-06-05T02:15:57.793Z,99.90
2023-06-05T02:18:26.818Z,99.90
2023-06-05T02:20:57.676Z,99.90
2023-06-05T02:23:26.000Z,99.90
2023-06-05T02:25:53.628Z,99.90
2023-06-05T02:28:21.670Z,99.90
2023-06-05T02:30:49.427Z,99.90
2023-06-05T02:33:17.114Z,99.90
2023-06-05T02:35:44.641Z,99.90
2023-06-05T02:38:13.978Z,99.90
2023-06-05T02:40:41.650Z,99.90
2023-06-05T02:43:09.459Z,99.90
2023-06-05T02:45:37.145Z,99.90
2023-06-05T02:48:04.823Z,99.90
2023-06-05T02:50:32.399Z,99.90
2023-06-05T02:52:59.947Z,99.90
2023-06-05T02:55:31.010Z,99.90
2023-06-05T02:57:59.098Z,99.90
2023-06-05T03:00:27.505Z,99.90
2023-06-05T03:02:57.045Z,99.90
2023-06-05T03:05:26.600Z,99.90
2023-06-05T03:07:54.856Z,99.90
2023-06-05T03:10:23.072Z,99.90
2023-06-05T03:12:50.709Z,99.90
2023-06-05T03:15:19.272Z,99.90
2023-06-05T03:17:47.383Z,99.90
2023-06-05T03:20:14.997Z,99.90
2023-06-05T03:22:42.603Z,99.90
2023-06-05T03:25:10.939Z,99.90
2023-06-05T03:27:38.581Z,99.90
2023-06-05T03:30:07.112Z,99.90
2023-06-05T03:32:34.670Z,99.90
2023-06-05T03:35:02.175Z,99.90
2023-06-05T03:37:29.702Z,99.90
2023-06-05T03:39:57.344Z,99.90
2023-06-05T03:42:24.952Z,99.90
2023-06-05T03:44:52.451Z,99.90
2023-06-05T03:47:22.928Z,99.90
2023-06-05T03:49:53.877Z,99.90
2023-06-05T03:52:24.803Z,99.90
2023-06-05T03:54:54.758Z,99.90
2023-06-05T03:57:23.505Z,99.90
2023-06-05T03:59:51.334Z,99.90
2023-06-05T04:02:19.550Z,99.90
2023-06-05T04:04:47.157Z,99.90
2023-06-05T04:07:14.775Z,99.90
2023-06-05T04:09:42.240Z,99.90
2023-06-05T04:12:11.623Z,99.90
2023-06-05T04:14:40.038Z,99.90
2023-06-05T04:17:07.701Z,99.90
2023-06-05T04:19:35.738Z,99.90
2023-06-05T04:22:03.453Z,99.90
2023-06-05T04:24:31.669Z,99.90
2023-06-05T04:27:02.036Z,99.90
2023-06-05T04:29:30.127Z,99.90
2023-06-05T04:31:57.736Z,99.90
2023-06-05T04:34:25.398Z,99.90
2023-06-05T04:36:53.079Z,99.90
2023-06-05T04:39:20.701Z,99.90
2023-06-05T04:41:57.104Z,99.90
2023-06-05T04:44:31.041Z,99.90
2023-06-05T04:46:58.835Z,99.90
2023-06-05T04:49:26.686Z,99.90
2023-06-05T04:51:54.627Z,99.90
2023-06-05T04:54:23.251Z,99.90
2023-06-05T04:56:51.163Z,99.90
2023-06-05T04:59:18.778Z,99.90
2023-06-05T05:01:46.576Z,99.90
2023-06-05T05:04:14.386Z,99.90
2023-06-05T05:06:48.441Z,99.90
2023-06-05T05:09:16.245Z,99.90
2023-06-05T05:11:43.916Z,99.90
2023-06-05T05:14:11.509Z,99.90
2023-06-05T05:16:39.147Z,99.90
2023-06-05T05:19:06.978Z,99.90
2023-06-05T05:21:34.458Z,99.90
2023-06-05T05:24:02.321Z,99.90
2023-06-05T05:26:30.009Z,99.90
2023-06-05T05:28:57.584Z,99.90
2023-06-05T05:31:25.208Z,99.90
2023-06-05T05:33:52.722Z,99.90
2023-06-05T05:36:20.249Z,99.90
2023-06-05T05:38:47.919Z,99.90
2023-06-05T05:41:15.590Z,99.90
2023-06-05T05:43:43.122Z,99.90
2023-06-05T05:46:10.749Z,99.90
2023-06-05T05:48:39.195Z,99.90
2023-06-05T05:51:11.088Z,99.90
2023-06-05T05:53:38.733Z,99.90
2023-06-05T05:56:06.354Z,99.90
2023-06-05T05:58:33.949Z,99.90
2023-06-05T06:01:01.793Z,99.90
2023-06-05T06:03:31.926Z,99.90
2023-06-05T06:05:59.932Z,99.90
2023-06-05T06:08:28.168Z,99.90
2023-06-05T06:10:56.422Z,99.90
2023-06-05T06:13:24.297Z,99.90
2023-06-05T06:15:52.058Z,99.90
2023-06-05T06:18:20.426Z,99.90
2023-06-05T06:20:48.476Z,99.80
2023-06-05T06:23:16.182Z,99.90
2023-06-05T06:25:44.539Z,99.00
2023-06-05T06:28:12.365Z,99.90
2023-06-05T06:30:39.959Z,99.90
2023-06-05T06:33:07.444Z,99.90
2023-06-05T06:35:37.734Z,99.80
2023-06-05T06:38:05.354Z,98.90
2023-06-05T06:40:32.962Z,99.90
2023-06-05T06:43:01.258Z,97.90
2023-06-05T06:45:28.876Z,99.20
2023-06-05T06:48:07.314Z,99.90
2023-06-05T06:50:36.140Z,99.00
2023-06-05T06:53:04.561Z,99.90
2023-06-05T06:55:32.833Z,99.20
2023-06-05T06:58:00.401Z,99.90
2023-06-05T07:00:28.003Z,98.30
2023-06-05T07:02:55.657Z,98.30
2023-06-05T07:05:23.887Z,97.50
2023-06-05T07:07:51.567Z,97.60
2023-06-05T07:10:19.119Z,96.70
2023-06-05T07:12:46.799Z,94.80
2023-06-05T07:15:14.373Z,96.80
2023-06-05T07:17:42.063Z,94.80
2023-06-05T07:20:10.420Z,96.10
2023-06-05T07:22:38.041Z,95.20
2023-06-05T07:25:06.371Z,97.10
2023-06-05T07:27:33.989Z,96.20
2023-06-05T07:30:01.874Z,92.70
2023-06-05T07:32:29.409Z,91.60
2023-06-05T07:34:58.172Z,93.40
2023-06-05T07:37:25.752Z,93.60
2023-06-05T07:39:53.598Z,92.40
2023-06-05T07:42:21.327Z,90.30
2023-06-05T07:44:49.692Z,90.80
2023-06-05T07:47:17.310Z,90.20
2023-06-05T07:49:44.855Z,92.90
2023-06-05T07:52:12.534Z,92.50
2023-06-05T07:54:40.155Z,92.40
2023-06-05T07:57:09.396Z,90.80
2023-06-05T07:59:37.078Z,90.20
2023-06-05T08:02:06.574Z,89.20
2023-06-05T08:04:35.146Z,87.10
2023-06-05T08:07:41.276Z,92.40
2023-06-05T08:10:10.201Z,85.90
2023-06-05T08:12:37.731Z,83.50
2023-06-05T08:15:07.336Z,81.80
2023-06-05T08:17:34.921Z,80.00
2023-06-05T08:20:06.659Z,81.20
2023-06-05T08:22:34.257Z,88.40
2023-06-05T08:25:02.237Z,82.70
2023-06-05T08:27:29.883Z,83.30
2023-06-05T08:29:57.885Z,83.30
2023-06-05T08:32:25.735Z,76.00
2023-06-05T08:34:53.545Z,77.80
2023-06-05T08:37:24.015Z,70.50
2023-06-05T08:39:55.261Z,76.60
2023-06-05T08:42:26.354Z,70.40
2023-06-05T08:45:02.441Z,73.90
2023-06-05T08:47:32.152Z,77.30
2023-06-05T08:50:04.850Z,72.60
2023-06-05T08:52:38.393Z,70.80
2023-06-05T08:55:07.282Z,72.20
2023-06-05T08:57:42.167Z,71.00
2023-06-05T09:00:15.893Z,64.20
2023-06-05T09:02:49.035Z,59.50
2023-06-05T09:05:18.468Z,61.30
2023-06-05T09:07:46.990Z,66.50
2023-06-05T09:10:30.394Z,64.10
2023-06-05T09:13:01.876Z,65.10
2023-06-05T09:15:34.905Z,60.60
2023-06-05T09:18:16.894Z,64.10
2023-06-05T09:20:49.632Z,56.10
2023-06-05T09:23:28.259Z,57.60
2023-06-05T09:26:00.320Z,59.40
2023-06-05T09:28:28.288Z,58.50
2023-06-05T09:31:03.654Z,51.70
2023-06-05T09:33:36.742Z,52.40
2023-06-05T09:36:13.692Z,58.30
2023-06-05T09:38:43.106Z,55.90
2023-06-05T09:41:15.858Z,55.80
2023-06-05T09:43:43.741Z,57.90
2023-06-05T09:46:14.111Z,55.20
2023-06-05T09:48:45.297Z,57.40
2023-06-05T09:51:19.472Z,50.80
2023-06-05T09:53:54.495Z,53.00
2023-06-05T09:56:23.612Z,54.10
2023-06-05T09:58:54.389Z,56.90
2023-06-05T10:01:25.998Z,52.30
2023-06-05T10:04:07.414Z,51.80
2023-06-05T10:06:36.590Z,50.70
2023-06-05T10:09:04.780Z,55.30
2023-06-05T10:11:32.898Z,53.80
2023-06-05T10:14:02.119Z,52.50
2023-06-05T10:16:30.714Z,52.00
2023-06-05T10:19:00.787Z,54.00
2023-06-05T10:21:30.449Z,52.90
2023-06-05T10:24:06.971Z,52.20
2023-06-05T10:26:53.193Z,52.10
2023-06-05T10:29:42.166Z,52.60
2023-06-05T10:32:29.822Z,54.00
2023-06-05T10:35:34.370Z,55.00
2023-06-05T10:38:25.465Z,55.10
2023-06-05T10:41:05.222Z,54.50
2023-06-05T10:43:54.447Z,53.10
2023-06-05T10:46:42.321Z,51.80
2023-06-05T10:49:14.589Z,49.10
2023-06-05T10:51:48.178Z,52.80
2023-06-05T10:54:39.751Z,51.20
2023-06-05T10:57:08.459Z,48.80
2023-06-05T10:59:41.016Z,47.10
2023-06-05T11:02:12.898Z,48.70
2023-06-05T11:04:52.457Z,49.40
2023-06-05T11:07:31.629Z,48.20
2023-06-05T11:10:19.217Z,47.60
2023-06-05T11:12:46.747Z,47.00
2023-06-05T11:15:41.387Z,48.10
2023-06-05T11:18:47.949Z,49.00
2023-06-05T11:21:15.463Z,44.30
2023-06-05T11:24:15.186Z,45.50
2023-06-05T11:26:43.755Z,45.20
2023-06-05T11:29:17.165Z,42.70
2023-06-05T11:31:45.992Z,42.60
2023-06-05T11:34:15.575Z,42.30
2023-06-05T11:36:43.245Z,42.50
2023-06-05T11:39:11.843Z,46.40
2023-06-05T11:41:54.361Z,45.70
2023-06-05T11:44:37.008Z,45.90
2023-06-05T11:47:04.770Z,42.40
2023-06-05T11:49:32.446Z,43.30
2023-06-05T11:52:02.088Z,41.10
2023-06-05T11:54:35.070Z,38.20
2023-06-05T11:57:13.516Z,38.20
2023-06-05T11:59:41.314Z,40.10
2023-06-05T12:02:09.784Z,40.40
2023-06-05T12:04:44.242Z,36.40
2023-06-05T12:07:13.408Z,37.50
2023-06-05T12:09:41.972Z,38.50
2023-06-05T12:12:10.625Z,42.20
2023-06-05T12:14:38.458Z,41.10
2023-06-05T12:17:13.244Z,39.80
2023-06-05T12:19:41.873Z,39.30
2023-06-05T12:22:10.968Z,41.40
2023-06-05T12:24:39.099Z,38.10
2023-06-05T12:27:07.778Z,40.80
2023-06-05T12:29:40.238Z,39.80
2023-06-05T12:32:27.824Z,41.60
2023-06-05T12:37:45.844Z,40.30
2023-06-05T12:40:21.812Z,38.30
2023-06-05T12:42:59.995Z,38.10
2023-06-05T12:45:27.746Z,37.70
2023-06-05T12:47:55.426Z,38.00
2023-06-05T12:50:23.195Z,38.90
2023-06-05T12:52:50.947Z,37.70
2023-06-05T12:55:18.520Z,37.80
2023-06-05T12:57:46.476Z,36.70
2023-06-05T13:00:15.457Z,35.00
2023-06-05T13:02:46.966Z,37.80
2023-06-05T13:05:18.156Z,38.70
2023-06-05T13:07:46.325Z,35.90
2023-06-05T13:10:14.157Z,35.40
2023-06-05T13:12:43.803Z,33.20
2023-06-05T13:15:12.081Z,37.00
2023-06-05T13:17:40.135Z,38.30
2023-06-05T13:20:12.342Z,37.50
2023-06-05T13:22:43.170Z,36.50
2023-06-05T13:25:11.758Z,37.10
2023-06-05T13:27:39.575Z,37.70
2023-06-05T13:30:08.208Z,36.30
2023-06-05T13:32:40.246Z,38.10
2023-06-05T13:35:09.620Z,35.10
2023-06-05T13:37:39.339Z,34.40
2023-06-05T13:40:07.730Z,36.60
2023-06-05T13:42:35.398Z,34.10
2023-06-05T13:45:03.618Z,36.10
2023-06-05T13:47:31.379Z,36.00
2023-06-05T13:49:59.258Z,36.10
2023-06-05T13:52:26.969Z,36.90
2023-06-05T13:54:54.745Z,37.50
2023-06-05T13:57:22.319Z,39.20
2023-06-05T13:59:49.840Z,39.00
2023-06-05T14:02:17.694Z,39.20
2023-06-05T14:04:45.296Z,39.10
2023-06-05T14:07:12.845Z,40.40
2023-06-05T14:09:40.579Z,40.80
2023-06-05T14:12:11.136Z,38.40
2023-06-05T14:14:38.655Z,38.60
2023-06-05T14:17:06.694Z,37.60
2023-06-05T14:19:34.246Z,36.60
2023-06-05T14:22:01.789Z,36.10
2023-06-05T14:24:29.310Z,35.40
2023-06-05T14:26:56.927Z,32.00
2023-06-05T14:29:24.432Z,32.70
2023-06-05T14:31:52.167Z,34.30
2023-06-05T14:34:21.404Z,34.90
2023-06-05T14:36:52.734Z,37.00
2023-06-05T14:39:22.101Z,37.10
2023-06-05T14:41:49.689Z,36.20
2023-06-05T14:44:23.041Z,36.80
2023-06-05T14:46:54.280Z,35.30
2023-06-05T14:49:21.822Z,35.00
2023-06-05T14:51:49.382Z,30.80
2023-06-05T14:54:17.097Z,34.60
2023-06-05T14:56:45.547Z,34.90
2023-06-05T15:01:48.044Z,35.00
2023-06-05T15:04:16.449Z,33.50
2023-06-05T15:06:44.185Z,34.90
2023-06-05T15:09:11.770Z,37.80
2023-06-05T15:11:39.293Z,35.50
2023-06-05T15:14:06.864Z,37.20
2023-06-05T15:16:41.978Z,34.60
2023-06-05T15:19:11.281Z,35.90
2023-06-05T15:21:39.028Z,37.30
2023-06-05T15:24:07.124Z,39.60
2023-06-05T15:26:35.008Z,38.10
2023-06-05T15:29:02.635Z,38.40
2023-06-05T15:31:30.186Z,38.80
2023-06-05T15:33:58.463Z,39.90
2023-06-05T15:36:27.325Z,39.50
2023-06-05T15:38:54.878Z,38.60
2023-06-05T15:41:24.763Z,38.60
2023-06-05T15:43:52.413Z,41.80
2023-06-05T15:46:20.161Z,40.80
2023-06-05T15:48:47.705Z,41.30
2023-06-05T15:51:15.348Z,41.40
2023-06-05T15:53:55.198Z,37.80
2023-06-05T15:56:28.322Z,39.40
2023-06-05T15:58:56.124Z,39.00
2023-06-05T16:01:24.947Z,38.30
2023-06-05T16:03:52.995Z,38.70
2023-06-05T16:06:21.754Z,38.10
2023-06-05T16:08:49.349Z,41.00
2023-06-05T16:11:16.884Z,38.00
2023-06-05T16:13:45.872Z,37.10
2023-06-05T16:16:13.755Z,38.10
2023-06-05T16:18:41.613Z,37.40
2023-06-05T16:21:09.304Z,38.60
2023-06-05T16:23:37.298Z,38.80
2023-06-05T16:26:04.934Z,38.50
2023-06-05T16:28:32.532Z,40.00
2023-06-05T16:31:00.172Z,39.90
2023-06-05T16:33:28.136Z,40.50
2023-06-05T16:35:55.803Z,40.80
2023-06-05T16:38:23.278Z,42.50
2023-06-05T16:40:51.073Z,41.60
2023-06-05T16:43:18.577Z,41.70
2023-06-05T16:45:47.776Z,41.30
2023-06-05T16:48:15.610Z,42.00
2023-06-05T16:50:45.393Z,43.30
2023-06-05T16:53:14.839Z,43.50
2023-06-05T16:55:42.530Z,44.60
2023-06-05T16:58:10.388Z,45.70
2023-06-05T17:00:38.312Z,46.40
2023-06-05T17:03:06.802Z,46.90
2023-06-05T17:05:34.770Z,47.70
2023-06-05T17:08:02.808Z,46.90
2023-06-05T17:10:30.412Z,47.70
2023-06-05T17:12:58.278Z,48.60
2023-06-05T17:15:26.561Z,49.60
2023-06-05T17:17:54.132Z,49.00
2023-06-05T17:20:21.772Z,50.50
2023-06-05T17:22:49.365Z,51.80
2023-06-05T17:25:17.165Z,53.40
2023-06-05T17:27:44.902Z,55.60
2023-06-05T17:30:14.714Z,56.50
2023-06-05T17:32:42.551Z,57.70
2023-06-05T17:35:10.227Z,58.70
2023-06-05T17:37:37.726Z,59.90
2023-06-05T17:40:06.903Z,61.80
2023-06-05T17:42:34.653Z,62.70
2023-06-05T17:45:02.248Z,63.00
2023-06-05T17:47:29.911Z,64.30
2023-06-05T17:49:57.697Z,64.00
2023-06-05T17:52:25.328Z,63.90
2023-06-05T17:54:52.923Z,63.50
2023-06-05T17:57:20.591Z,64.60
2023-06-05T17:59:48.522Z,66.40
2023-06-05T18:02:16.200Z,67.50
2023-06-05T18:04:43.811Z,68.40
2023-06-05T18:07:11.465Z,68.70
2023-06-05T18:09:38.993Z,69.20
2023-06-05T18:12:08.171Z,70.20
2023-06-05T18:14:36.333Z,70.80
2023-06-05T18:17:04.797Z,72.10
2023-06-05T18:19:32.427Z,71.70
2023-06-05T18:21:59.992Z,71.60
2023-06-05T18:24:27.647Z,71.80
2023-06-05T18:26:55.253Z,72.70
2023-06-05T18:29:22.835Z,71.70
2023-06-05T18:31:50.437Z,72.10
2023-06-05T18:34:18.107Z,71.70
2023-06-05T18:36:45.683Z,72.30
2023-06-05T18:39:14.675Z,72.80
2023-06-05T18:41:43.372Z,73.00
2023-06-05T18:44:11.939Z,72.90
2023-06-05T18:46:40.165Z,73.90
2023-06-05T18:49:07.850Z,73.90
2023-06-05T18:51:35.453Z,74.80
2023-06-05T18:54:03.176Z,75.70
2023-06-05T18:56:31.926Z,76.10
2023-06-05T18:58:59.532Z,75.40
2023-06-05T19:01:27.155Z,74.80
2023-06-05T19:03:54.713Z,74.50
2023-06-05T19:06:22.721Z,74.20
2023-06-05T19:08:50.332Z,76.10
2023-06-05T19:11:18.630Z,78.10
2023-06-05T19:13:46.249Z,77.70
2023-06-05T19:16:13.910Z,78.20
2023-06-05T19:18:43.010Z,77.30
2023-06-05T19:21:13.255Z,75.00
2023-06-05T19:23:41.088Z,76.10
2023-06-05T19:26:08.777Z,75.60
2023-06-05T19:28:36.652Z,75.60
2023-06-05T19:31:04.511Z,75.90
2023-06-05T19:33:32.146Z,75.50
2023-06-05T19:36:00.968Z,75.50
2023-06-05T19:38:28.498Z,75.70
2023-06-05T19:40:57.220Z,76.40
2023-06-05T19:43:24.811Z,76.10
2023-06-05T19:45:52.567Z,75.40
2023-06-05T19:48:21.834Z,74.80
2023-06-05T19:50:49.552Z,74.20
2023-06-05T19:53:17.303Z,77.20
2023-06-05T19:55:45.024Z,74.00
2023-06-05T19:58:12.742Z,74.40
2023-06-05T20:00:40.431Z,72.00
2023-06-05T20:03:08.718Z,74.20
2023-06-05T20:05:36.392Z,71.90
2023-06-05T20:08:04.070Z,72.60
2023-06-05T20:10:31.900Z,72.50
2023-06-05T20:13:00.027Z,74.40
2023-06-05T20:15:27.982Z,74.60
2023-06-05T20:17:55.540Z,73.90
2023-06-05T20:20:24.858Z,74.60
2023-06-05T20:22:52.971Z,75.00
2023-06-05T20:25:20.753Z,76.10
2023-06-05T20:27:50.122Z,77.50
2023-06-05T20:30:19.133Z,79.50
2023-06-05T20:32:46.732Z,80.50
2023-06-05T20:35:16.257Z,82.80
2023-06-05T20:37:46.328Z,84.20
2023-06-05T20:40:16.798Z,86.10
2023-06-05T20:42:47.027Z,87.00
2023-06-05T20:45:15.006Z,88.80
2023-06-05T20:47:44.186Z,89.50
2023-06-05T20:50:12.935Z,90.80
2023-06-05T20:52:40.763Z,91.60
2023-06-05T20:55:08.991Z,92.40
2023-06-05T20:57:36.608Z,92.60
2023-06-05T21:00:06.262Z,93.10
2023-06-05T21:02:33.877Z,93.50
2023-06-05T21:05:02.297Z,94.10
2023-06-05T21:07:29.799Z,94.90
2023-06-05T21:09:57.686Z,96.60
2023-06-05T21:12:25.531Z,99.90
2023-06-05T21:14:54.036Z,99.90
2023-06-05T21:17:21.636Z,99.90
2023-06-05T21:19:49.252Z,99.90
2023-06-05T21:22:16.805Z,99.90
2023-06-05T21:24:44.370Z,99.90
2023-06-05T21:27:12.373Z,99.90
2023-06-05T21:29:43.238Z,99.90
2023-06-05T21:32:11.037Z,99.90
2023-06-05T21:34:44.662Z,99.90
2023-06-05T21:37:17.050Z,99.90
2023-06-05T21:39:48.335Z,99.90
2023-06-05T21:42:17.201Z,99.90
2023-06-05T21:44:49.390Z,99.90
2023-06-05T21:47:19.685Z,99.90
2023-06-05T21:49:47.408Z,99.90
2023-06-05T21:52:15.193Z,99.90
2023-06-05T21:54:43.596Z,99.90
2023-06-05T21:57:12.960Z,99.90
2023-06-05T21:59:41.386Z,99.90
2023-06-05T22:02:09.109Z,99.90
2023-06-05T22:04:36.777Z,99.90
2023-06-05T22:07:04.616Z,99.90
2023-06-05T22:09:33.192Z,99.90
2023-06-05T22:12:01.904Z,99.90
2023-06-05T22:14:30.348Z,99.90
2023-06-05T22:16:58.829Z,99.90
2023-06-05T22:19:27.058Z,99.90
2023-06-05T22:21:54.664Z,99.90
2023-06-05T22:24:24.632Z,99.90
2023-06-05T22:26:52.332Z,99.90
2023-06-05T22:29:19.833Z,99.90
2023-06-05T22:31:47.471Z,99.90
2023-06-05T22:34:14.989Z,99.90
2023-06-05T22:36:45.350Z,99.90
2023-06-05T22:39:13.423Z,99.90
2023-06-05T22:41:42.094Z,99.90
2023-06-05T22:44:09.690Z,99.90
2023-06-05T22:46:37.214Z,99.90
2023-06-05T22:49:04.897Z,99.90
2023-06-05T22:51:33.890Z,99.90
2023-06-05T22:54:01.449Z,99.90
2023-06-05T22:56:29.182Z,99.90
2023-06-05T22:58:56.896Z,99.90
2023-06-05T23:01:25.716Z,99.90
2023-06-05T23:03:53.526Z,99.90
2023-06-05T23:06:21.728Z,99.90
2023-06-05T23:08:49.902Z,99.90
2023-06-05T23:11:17.760Z,99.90
2023-06-05T23:13:45.770Z,99.90
2023-06-05T23:16:13.433Z,99.90
2023-06-05T23:18:40.989Z,99.90
2023-06-05T23:21:08.930Z,99.90
2023-06-05T23:23:37.393Z,99.90
2023-06-05T23:26:05.516Z,99.90
2023-06-05T23:28:33.199Z,99.90
2023-06-05T23:31:00.841Z,99.90
2023-06-05T23:33:29.206Z,99.90
2023-06-05T23:35:56.821Z,99.90
2023-06-05T23:38:24.391Z,99.90
2023-06-05T23:40:51.867Z,99.90
2023-06-05T23:43:19.473Z,99.90
2023-06-05T23:45:46.981Z,99.90
2023-06-05T23:48:14.551Z,99.90
2023-06-05T23:50:42.208Z,99.90
2023-06-05T23:53:10.724Z,99.90
2023-06-05T23:55:40.216Z,99.90
2023-06-05T23:58:07.779Z,99.90
